Time;durP1;ratioP1;P1;durP2;ratioP2;P2;SDS_P1;SDS_P2;PMS_P1;PMS_P2;Temp;Humidity;BMP_temperature;BMP_pressure;BME280_temperature;BME280_humidity;BME280_pressure;Samples;Min_cycle;Max_cycle;Signal;HPM_P1;HPM_P2
2022/11/13 00:01:08;;;;;;;;;;;;;;;20.68;32.94;99488.09;5037284;28;1967;-75
2022/11/13 00:03:53;;;;;;;;;;;;;;;20.57;33.39;99495.72;5036388;28;1011;-75
2022/11/13 00:06:36;;;;;;;;;;;;;;;20.54;32.99;99488.06;5037461;28;887;-75
2022/11/13 00:09:20;;;;;;;;;;;;;;;20.84;33.03;99484.88;5037594;28;938;-75
2022/11/13 00:12:04;;;;;;;;;;;;;;;21.05;32.97;99492.53;5037312;28;885;-75
2022/11/13 00:14:48;;;;;;;;;;;;;;;21.11;32.59;99487.28;5035492;28;951;-75
2022/11/13 00:17:32;;;;;;;;;;;;;;;20.73;33.03;99476.38;5037186;28;951;-75
2022/11/13 00:20:16;;;;;;;;;;;;;;;20.65;33.25;99477.56;5037030;28;1967;-75
2022/11/13 00:23:00;;;;;;;;;;;;;;;20.65;33.20;99483.22;5036913;28;951;-75
2022/11/13 00:25:44;;;;;;;;;;;;;;;20.39;33.53;99475.09;5036996;28;982;-75
2022/11/13 00:28:28;;;;;;;;;;;;;;;20.91;33.37;99478.38;5037061;28;937;-75
2022/11/13 00:31:13;;;;;;;;;;;;;;;21.03;33.09;99475.13;5036774;28;919;-75
2022/11/13 00:33:57;;;;;;;;;;;;;;;20.95;33.14;99473.53;5035896;28;911;-75
2022/11/13 00:36:41;;;;;;;;;;;;;;;20.70;33.08;99473.53;5035915;28;1008;-74
2022/11/13 00:39:25;;;;;;;;;;;;;;;20.60;32.84;99469.50;5036678;28;1902;-75
2022/11/13 00:42:09;;;;;;;;;;;;;;;21.08;32.83;99471.91;5035632;28;934;-75
2022/11/13 00:44:53;;;;;;;;;;;;;;;21.01;32.88;99481.22;5036508;28;848;-75
2022/11/13 00:47:37;;;;;;;;;;;;;;;21.18;32.57;99476.75;5036510;28;961;-74
2022/11/13 00:50:21;;;;;;;;;;;;;;;20.61;32.95;99471.09;5036555;28;906;-74
2022/11/13 00:53:05;;;;;;;;;;;;;;;20.70;32.29;99468.69;5036432;28;920;-75
2022/11/13 00:55:49;;;;;;;;;;;;;;;20.53;32.22;99469.50;5035450;28;957;-75
2022/11/13 00:58:33;;;;;;;;;;;;;;;20.67;33.20;99463.81;5036577;28;1022;-74
2022/11/13 01:01:17;;;;;;;;;;;;;;;21.04;32.24;99465.47;5036306;28;1914;-75
2022/11/13 01:04:01;;;;;;;;;;;;;;;21.14;31.82;99458.97;5036338;28;896;-75
2022/11/13 01:06:45;;;;;;;;;;;;;;;20.76;32.15;99455.75;5036016;28;956;-75
2022/11/13 01:09:29;;;;;;;;;;;;;;;20.54;32.44;99460.59;5036058;28;987;-75
2022/11/13 01:12:13;;;;;;;;;;;;;;;20.60;32.03;99458.19;5036172;28;966;-75
2022/11/13 01:14:57;;;;;;;;;;;;;;;20.72;32.30;99460.59;5034139;28;1210;-75
2022/11/13 01:17:41;;;;;;;;;;;;;;;21.22;31.44;99456.94;5036244;28;881;-74
2022/11/13 01:20:25;;;;;;;;;;;;;;;20.69;31.94;99461.41;5035873;28;1906;-75
2022/11/13 01:23:09;;;;;;;;;;;;;;;20.42;32.54;99458.16;5035915;28;923;-75
2022/11/13 01:25:53;;;;;;;;;;;;;;;20.47;32.17;99454.16;5035839;28;917;-75
2022/11/13 01:28:37;;;;;;;;;;;;;;;20.55;32.47;99458.59;5035713;28;977;-75
2022/11/13 01:31:21;;;;;;;;;;;;;;;20.90;31.63;99463.44;5034801;28;910;-75
2022/11/13 01:34:05;;;;;;;;;;;;;;;21.14;31.27;99469.47;5035768;28;1029;-75
2022/11/13 01:36:49;;;;;;;;;;;;;;;20.51;31.87;99460.59;5033637;28;1049;-75
2022/11/13 01:39:33;;;;;;;;;;;;;;;20.64;31.58;99459.00;5035582;28;1902;-75
2022/11/13 01:42:17;;;;;;;;;;;;;;;20.47;32.10;99454.16;5035527;28;920;-75
2022/11/13 01:45:01;;;;;;;;;;;;;;;21.02;31.04;99451.69;5034327;28;1014;-75
2022/11/13 01:47:45;;;;;;;;;;;;;;;21.24;30.71;99449.66;5034461;28;963;-75
2022/11/13 01:50:29;;;;;;;;;;;;;;;20.74;31.36;99446.06;5035322;28;852;-75
2022/11/13 01:53:13;;;;;;;;;;;;;;;20.63;31.56;99451.72;5035425;28;925;-75
2022/11/13 01:55:57;;;;;;;;;;;;;;;20.46;31.91;99446.81;5034499;28;912;-75
2022/11/13 01:58:41;;;;;;;;;;;;;;;20.80;31.37;99450.91;5034181;28;986;-75
2022/11/13 02:01:25;;;;;;;;;;;;;;;20.83;31.33;99449.31;5020538;28;954;-75
2022/11/13 02:04:09;;;;;;;;;;;;;;;21.02;30.93;99450.88;5034092;28;960;-75
2022/11/13 02:06:54;;;;;;;;;;;;;;;20.58;31.44;99446.47;5034176;28;912;-75
2022/11/13 02:09:39;;;;;;;;;;;;;;;20.57;31.33;99441.19;5035154;28;981;-75
2022/11/13 02:12:41;;;;;;;;;;;;;;;20.84;31.28;99445.25;5034081;28;966;-75
2022/11/13 02:15:25;;;;;;;;;;;;;;;21.03;30.70;99447.66;5020261;28;1047;-75
2022/11/13 02:18:09;;;;;;;;;;;;;;;20.94;30.87;99437.97;5035242;28;972;-75
2022/11/13 02:20:56;;;;;;;;;;;;;;;20.72;30.98;99437.97;5033909;28;1906;-74
2022/11/13 02:23:52;;;;;;;;;;;;;;;20.63;31.31;99440.41;5035039;28;753;-75
2022/11/13 02:26:36;;;;;;;;;;;;;;;20.47;31.16;99449.28;5034997;28;900;-76
2022/11/13 02:29:20;;;;;;;;;;;;;;;21.12;30.40;99443.59;5033920;28;867;-75
2022/11/13 02:32:04;;;;;;;;;;;;;;;21.16;30.27;99455.72;5033120;28;943;-75
2022/11/13 02:34:48;;;;;;;;;;;;;;;20.97;30.82;99445.63;5032949;28;1136;-75
2022/11/13 02:37:32;;;;;;;;;;;;;;;20.92;30.39;99449.69;5033035;28;910;-75
2022/11/13 02:40:16;;;;;;;;;;;;;;;20.67;31.02;99443.22;5034805;28;1902;-75
2022/11/13 02:43:00;;;;;;;;;;;;;;;20.36;31.69;99445.59;5033917;28;928;-75
2022/11/13 02:45:44;;;;;;;;;;;;;;;20.63;31.17;99440.41;5033839;28;835;-75
2022/11/13 02:48:28;;;;;;;;;;;;;;;20.98;30.74;99444.41;5033808;28;954;-75
2022/11/13 02:51:13;;;;;;;;;;;;;;;21.32;29.92;99442.78;5034804;28;807;-75
2022/11/13 02:53:57;;;;;;;;;;;;;;;20.62;31.00;99435.16;5034962;28;992;-75
2022/11/13 02:56:41;;;;;;;;;;;;;;;20.40;31.63;99431.47;5036921;28;968;-75
2022/11/13 02:59:24;;;;;;;;;;;;;;;20.39;31.20;99429.88;5038567;28;1910;-75
2022/11/13 03:02:08;;;;;;;;;;;;;;;21.03;30.49;99436.31;5037617;28;938;-75
2022/11/13 03:04:52;;;;;;;;;;;;;;;21.32;30.05;99437.13;5038490;28;862;-75
2022/11/13 03:07:36;;;;;;;;;;;;;;;20.86;30.29;99436.34;5038323;28;919;-75
2022/11/13 03:10:20;;;;;;;;;;;;;;;20.48;31.02;99438.78;5038446;28;1003;-75
2022/11/13 03:13:04;;;;;;;;;;;;;;;20.54;31.04;99443.63;5038254;28;893;-75
2022/11/13 03:15:48;;;;;;;;;;;;;;;20.84;30.91;99447.28;5038349;28;853;-75
2022/11/13 03:18:31;;;;;;;;;;;;;;;21.04;30.44;99440.78;5038185;28;926;-75
2022/11/13 03:21:15;;;;;;;;;;;;;;;21.09;30.35;99439.56;5038074;28;1914;-75
2022/11/13 03:23:59;;;;;;;;;;;;;;;20.76;30.60;99438.78;5023175;28;910;-75
2022/11/13 03:26:43;;;;;;;;;;;;;;;20.75;30.56;99437.16;5038022;28;851;-75
2022/11/13 03:29:27;;;;;;;;;;;;;;;20.57;31.50;99436.34;5036266;28;942;-75
2022/11/13 03:32:11;;;;;;;;;;;;;;;20.97;30.40;99445.63;5036301;28;958;-75
2022/11/13 03:34:55;;;;;;;;;;;;;;;21.11;30.25;99442.78;5037795;28;1434;-75
2022/11/13 03:37:39;;;;;;;;;;;;;;;20.77;30.52;99442.41;5036236;28;947;-75
2022/11/13 03:40:23;;;;;;;;;;;;;;;20.44;31.03;99443.59;5037685;28;1949;-75
2022/11/13 03:43:07;;;;;;;;;;;;;;;20.86;30.59;99436.34;5037674;28;1002;-75
2022/11/13 03:45:51;;;;;;;;;;;;;;;21.11;30.19;99436.34;5037858;28;950;-75
2022/11/13 03:48:35;;;;;;;;;;;;;;;21.29;29.93;99432.22;5037698;28;888;-75
2022/11/13 03:51:19;;;;;;;;;;;;;;;20.51;31.11;99427.47;5037603;28;993;-75
2022/11/13 03:54:03;;;;;;;;;;;;;;;20.28;31.25;99425.00;5037629;28;964;-75
2022/11/13 03:56:47;;;;;;;;;;;;;;;20.61;30.81;99431.50;5037425;28;959;-75
2022/11/13 03:59:31;;;;;;;;;;;;;;;20.92;30.16;99435.53;5037495;28;1906;-75
2022/11/13 04:02:15;;;;;;;;;;;;;;;21.05;30.07;99433.09;5037608;28;894;-75
2022/11/13 04:04:59;;;;;;;;;;;;;;;20.79;30.48;99426.66;5037374;28;918;-75
2022/11/13 04:07:43;;;;;;;;;;;;;;;20.60;30.82;99432.72;5037375;28;1138;-75
2022/11/13 04:10:27;;;;;;;;;;;;;;;20.58;30.94;99421.03;5036273;28;953;-75
2022/11/13 04:13:11;;;;;;;;;;;;;;;20.96;30.45;99424.22;5037321;28;975;-75
2022/11/13 04:15:55;;;;;;;;;;;;;;;21.22;29.95;99415.28;5037241;28;927;-75
2022/11/13 04:18:39;;;;;;;;;;;;;;;20.97;29.92;99425.84;5037225;28;980;-75
2022/11/13 04:21:22;;;;;;;;;;;;;;;20.40;30.87;99423.00;5037176;28;1910;-75
2022/11/13 04:24:06;;;;;;;;;;;;;;;20.67;30.53;99424.22;5036999;28;915;-75
2022/11/13 04:26:50;;;;;;;;;;;;;;;20.87;30.46;99421.00;5036897;28;956;-75
2022/11/13 04:29:34;;;;;;;;;;;;;;;20.92;30.44;99429.06;5037089;28;980;-74
2022/11/13 04:32:18;;;;;;;;;;;;;;;20.46;30.61;99429.84;5036888;28;893;-75
2022/11/13 04:35:02;;;;;;;;;;;;;;;20.44;30.73;99420.97;5036728;28;1293;-75
2022/11/13 04:37:46;;;;;;;;;;;;;;;20.54;30.46;99431.53;5035967;28;983;-75
2022/11/13 04:40:30;;;;;;;;;;;;;;;21.09;29.86;99442.41;5036619;28;1894;-75
2022/11/13 04:43:14;;;;;;;;;;;;;;;20.92;30.27;99440.38;5035579;28;935;-75
2022/11/13 04:45:57;;;;;;;;;;;;;;;20.58;30.57;99426.69;5036723;28;920;-75
2022/11/13 04:48:41;;;;;;;;;;;;;;;20.42;30.71;99431.91;5036597;28;903;-75
2022/11/13 04:51:25;;;;;;;;;;;;;;;20.53;30.69;99432.75;5036398;28;1217;-75
2022/11/13 04:54:09;;;;;;;;;;;;;;;20.77;30.36;99429.06;5036458;28;932;-75
2022/11/13 04:56:53;;;;;;;;;;;;;;;21.10;29.65;99441.19;5036663;28;953;-75
2022/11/13 04:59:37;;;;;;;;;;;;;;;20.66;30.10;99433.94;5036266;28;1969;-75
2022/11/13 05:02:21;;;;;;;;;;;;;;;20.60;30.38;99437.59;5036271;28;972;-75
2022/11/13 05:05:05;;;;;;;;;;;;;;;20.66;30.36;99433.94;5035117;28;915;-75
2022/11/13 05:07:48;;;;;;;;;;;;;;;20.90;30.15;99437.16;5036097;28;1002;-74
2022/11/13 05:10:32;;;;;;;;;;;;;;;20.91;29.99;99430.28;5035852;28;953;-75
2022/11/13 05:13:16;;;;;;;;;;;;;;;20.64;30.27;99429.91;5036151;28;966;-75
2022/11/13 05:16:01;;;;;;;;;;;;;;;20.67;30.25;99435.53;5036035;28;915;-75
2022/11/13 05:18:45;;;;;;;;;;;;;;;20.50;30.32;99436.34;5035463;28;985;-75
2022/11/13 05:21:29;;;;;;;;;;;;;;;21.10;29.34;99438.34;5036069;28;1992;-75
2022/11/13 05:24:13;;;;;;;;;;;;;;;21.16;29.25;99433.88;5035743;28;979;-75
2022/11/13 05:26:57;;;;;;;;;;;;;;;21.08;29.39;99443.59;5035844;28;892;-75
2022/11/13 05:29:40;;;;;;;;;;;;;;;20.64;29.89;99447.69;5035803;28;975;-75
2022/11/13 05:32:24;;;;;;;;;;;;;;;20.22;30.79;99449.22;5035889;28;937;-74
2022/11/13 05:35:08;;;;;;;;;;;;;;;20.69;30.00;99447.28;5035558;28;1138;-74
2022/11/13 05:37:52;;;;;;;;;;;;;;;20.95;29.51;99453.75;5035657;28;883;-75
2022/11/13 05:40:36;;;;;;;;;;;;;;;20.69;29.76;99450.09;5035580;28;1903;-75
2022/11/13 05:43:20;;;;;;;;;;;;;;;20.55;30.28;99452.94;5035579;28;894;-75
2022/11/13 05:46:11;;;;;;;;;;;;;;;20.38;30.37;99451.69;5033789;28;994;-75
2022/11/13 05:48:56;;;;;;;;;;;;;;;20.84;30.16;99465.06;5035487;28;881;-75
2022/11/13 05:51:40;;;;;;;;;;;;;;;20.87;29.80;99454.94;5035545;28;864;-75
2022/11/13 05:54:24;;;;;;;;;;;;;;;21.11;29.34;99454.13;5035424;28;988;-75
2022/11/13 05:57:08;;;;;;;;;;;;;;;20.49;30.31;99460.19;5035365;28;941;-75
2022/11/13 05:59:52;;;;;;;;;;;;;;;20.60;30.19;99463.03;5035149;28;1973;-75
2022/11/13 06:02:36;;;;;;;;;;;;;;;20.51;30.49;99467.06;5035192;28;987;-75
2022/11/13 06:05:20;;;;;;;;;;;;;;;20.70;30.18;99474.34;5035402;28;928;-75
2022/11/13 06:08:03;;;;;;;;;;;;;;;21.04;29.82;99473.94;5035122;28;929;-75
2022/11/13 06:10:47;;;;;;;;;;;;;;;20.64;30.02;99475.97;5035126;28;927;-75
2022/11/13 06:13:31;;;;;;;;;;;;;;;20.61;30.11;99467.47;5035150;28;887;-75
2022/11/13 06:16:16;;;;;;;;;;;;;;;20.29;30.47;99469.00;5035043;28;1049;-75
2022/11/13 06:19:00;;;;;;;;;;;;;;;20.83;30.31;99471.94;5035191;28;892;-75
2022/11/13 06:21:44;;;;;;;;;;;;;;;21.12;29.53;99474.72;5034005;28;928;-75
2022/11/13 06:24:28;;;;;;;;;;;;;;;20.98;29.88;99469.88;5047401;28;969;-75
2022/11/13 06:27:12;;;;;;;;;;;;;;;20.72;30.23;99471.91;5035013;28;927;-75
2022/11/13 06:29:56;;;;;;;;;;;;;;;20.53;30.46;99470.31;5034800;28;949;-75
2022/11/13 06:32:40;;;;;;;;;;;;;;;20.66;30.37;99473.53;5038957;28;895;-75
2022/11/13 06:35:24;;;;;;;;;;;;;;;21.11;29.48;99475.94;5049632;28;1152;-76
2022/11/13 06:38:08;;;;;;;;;;;;;;;21.01;29.90;99477.56;5058044;28;1078;-75
2022/11/13 06:40:52;;;;;;;;;;;;;;;20.74;30.16;99480.00;5055691;28;1906;-76
2022/11/13 06:43:35;;;;;;;;;;;;;;;20.64;30.31;99480.81;5056575;28;1093;-75
2022/11/13 06:46:21;;;;;;;;;;;;;;;20.57;30.34;99464.63;5056617;28;1047;-75
2022/11/13 06:49:04;;;;;;;;;;;;;;;20.90;30.12;99471.94;5057683;28;1113;-75
2022/11/13 06:51:48;;;;;;;;;;;;;;;21.00;29.86;99470.31;5056845;28;1047;-75
2022/11/13 06:54:32;;;;;;;;;;;;;;;20.70;29.84;99474.34;5076707;28;1086;-75
2022/11/13 06:57:16;;;;;;;;;;;;;;;20.78;29.91;99470.31;5058594;28;923;-75
2022/11/13 07:00:00;;;;;;;;;;;;;;;20.44;30.17;99461.38;5058576;28;1922;-75
2022/11/13 07:02:44;;;;;;;;;;;;;;;20.65;30.67;99460.59;5057719;28;1075;-76
2022/11/13 07:05:27;;;;;;;;;;;;;;;21.15;29.66;99466.25;5056258;28;1130;-76
2022/11/13 07:08:11;;;;;;;;;;;;;;;21.27;29.11;99467.84;5057377;28;1004;-76
2022/11/13 07:10:55;;;;;;;;;;;;;;;20.63;30.04;99462.25;5057486;28;1092;-76
2022/11/13 07:13:39;;;;;;;;;;;;;;;20.64;30.02;99461.81;5085485;28;1083;-76
2022/11/13 07:16:23;;;;;;;;;;;;;;;20.53;30.84;99452.53;5052775;28;1098;-76
2022/11/13 07:19:07;;;;;;;;;;;;;;;20.57;30.62;99455.34;5039177;28;1093;-76
2022/11/13 07:21:51;;;;;;;;;;;;;;;20.94;29.97;99454.97;5053990;28;1098;-76
2022/11/13 07:24:35;;;;;;;;;;;;;;;20.55;30.42;99455.75;5040442;28;1061;-76
2022/11/13 07:27:19;;;;;;;;;;;;;;;20.58;30.27;99452.13;5055024;28;1102;-76
2022/11/13 07:30:04;;;;;;;;;;;;;;;20.48;30.36;99455.75;5055219;28;1090;-76
2022/11/13 07:32:48;;;;;;;;;;;;;;;20.80;30.54;99453.75;5041206;28;1380;-76
2022/11/13 07:35:32;;;;;;;;;;;;;;;21.00;29.84;99453.31;5039462;28;1108;-76
2022/11/13 07:38:16;;;;;;;;;;;;;;;21.00;29.75;99447.66;5054656;28;1062;-76
2022/11/13 07:41:00;;;;;;;;;;;;;;;20.66;30.51;99450.09;5041051;28;1975;-75
2022/11/13 07:43:43;;;;;;;;;;;;;;;20.51;30.38;99443.63;5069476;28;975;-76
2022/11/13 07:46:27;;;;;;;;;;;;;;;20.64;30.47;99447.69;5055839;28;1093;-76
2022/11/13 07:49:11;;;;;;;;;;;;;;;20.97;29.78;99443.63;5085078;28;804;-76
2022/11/13 07:51:55;;;;;;;;;;;;;;;20.92;29.93;99446.03;5057672;28;858;-76
2022/11/13 07:54:39;;;;;;;;;;;;;;;20.80;29.94;99456.56;5057511;28;928;-75
2022/11/13 07:57:23;;;;;;;;;;;;;;;20.36;30.77;99441.97;5057423;28;973;-75
2022/11/13 08:00:07;;;;;;;;;;;;;;;20.70;30.51;99440.41;5057372;28;1882;-75
2022/11/13 08:02:51;;;;;;;;;;;;;;;20.87;30.09;99441.59;5084708;28;928;-76
2022/11/13 08:05:35;;;;;;;;;;;;;;;21.18;29.56;99437.09;5084788;28;912;-76
2022/11/13 08:08:19;;;;;;;;;;;;;;;20.75;30.09;99439.19;5084860;28;922;-77
2022/11/13 08:11:04;;;;;;;;;;;;;;;20.64;30.47;99436.38;5057311;28;935;-76
2022/11/13 08:13:48;;;;;;;;;;;;;;;20.42;30.57;99440.38;5084551;28;969;-76
2022/11/13 08:16:32;;;;;;;;;;;;;;;20.73;30.14;99442.44;5083901;28;951;-76
2022/11/13 08:19:16;;;;;;;;;;;;;;;20.98;29.70;99441.59;5057102;28;1964;-76
2022/11/13 08:22:00;;;;;;;;;;;;;;;20.90;30.16;99431.50;5083779;28;960;-76
2022/11/13 08:24:44;;;;;;;;;;;;;;;20.62;30.18;99435.94;5057007;28;756;-76
2022/11/13 08:27:28;;;;;;;;;;;;;;;20.69;30.14;99438.78;5056945;28;900;-76
2022/11/13 08:30:12;;;;;;;;;;;;;;;21.08;29.92;99437.94;5188371;22;3592;-74
2022/11/13 08:32:56;;;;;;;;;;;;;;;21.40;30.16;99428.59;5076147;28;1099;-73
2022/11/13 08:35:40;;;;;;;;;;;;;;;20.81;31.36;99435.53;5078030;28;988;-74
2022/11/13 08:38:24;;;;;;;;;;;;;;;20.72;31.27;99429.47;5077665;28;892;-74
2022/11/13 08:41:08;;;;;;;;;;;;;;;20.26;31.77;99433.09;5077510;28;1898;-74
2022/11/13 08:43:53;;;;;;;;;;;;;;;20.88;30.65;99428.25;5077612;28;925;-74
2022/11/13 08:46:37;;;;;;;;;;;;;;;20.88;30.52;99433.91;5077028;28;1045;-74
2022/11/13 08:49:20;;;;;;;;;;;;;;;20.85;30.26;99429.09;5057568;28;962;-74
2022/11/13 08:52:04;;;;;;;;;;;;;;;20.50;30.71;99430.69;5057545;28;973;-74
2022/11/13 08:54:48;;;;;;;;;;;;;;;20.43;30.59;99425.03;5056467;28;971;-74
2022/11/13 08:57:32;;;;;;;;;;;;;;;20.30;30.75;99425.41;5056299;28;994;-74
2022/11/13 09:00:16;;;;;;;;;;;;;;;20.65;30.16;99426.66;5056155;28;1979;-74
2022/11/13 09:03:00;;;;;;;;;;;;;;;20.71;29.68;99421.41;5056067;28;884;-74
2022/11/13 09:05:44;;;;;;;;;;;;;;;20.84;29.50;99416.16;5056104;28;883;-74
2022/11/13 09:08:29;;;;;;;;;;;;;;;20.54;29.54;99412.53;5056859;28;970;-74
2022/11/13 09:11:13;;;;;;;;;;;;;;;20.17;30.22;99412.88;5055914;28;1001;-74
2022/11/13 09:13:57;;;;;;;;;;;;;;;20.22;29.64;99411.69;5056970;28;1027;-74
2022/11/13 09:16:41;;;;;;;;;;;;;;;20.48;29.12;99402.03;5056002;28;918;-74
2022/11/13 09:19:25;;;;;;;;;;;;;;;20.77;28.53;99395.13;5056617;28;1902;-74
2022/11/13 09:22:09;;;;;;;;;;;;;;;20.80;28.67;99400.00;5056725;28;1088;-74
2022/11/13 09:24:53;;;;;;;;;;;;;;;20.62;29.07;99398.38;5055647;28;880;-74
2022/11/13 09:27:37;;;;;;;;;;;;;;;20.76;28.63;99393.53;5056700;28;852;-75
2022/11/13 09:30:21;;;;;;;;;;;;;;;20.18;29.41;99386.22;5057010;28;1143;-75
2022/11/13 09:33:05;;;;;;;;;;;;;;;20.77;28.43;99391.50;5055533;28;850;-75
2022/11/13 09:35:49;;;;;;;;;;;;;;;21.15;27.46;99387.00;5055617;28;997;-75
2022/11/13 09:38:33;;;;;;;;;;;;;;;20.81;27.87;99373.31;5055444;28;944;-74
2022/11/13 09:41:18;;;;;;;;;;;;;;;20.70;28.39;99372.53;5056439;28;1906;-74
2022/11/13 09:44:05;;;;;;;;;;;;;;;20.28;28.71;99368.47;5055820;28;1345;-74
2022/11/13 09:46:58;;;;;;;;;;;;;;;20.33;28.82;99369.28;5055404;28;973;-74
2022/11/13 09:49:44;;;;;;;;;;;;;;;20.40;28.47;99363.63;5055494;28;905;-74
2022/11/13 09:52:38;;;;;;;;;;;;;;;20.67;28.14;99356.34;5055330;28;837;-74
2022/11/13 09:55:24;;;;;;;;;;;;;;;20.84;27.96;99354.72;5056144;28;878;-74
2022/11/13 09:58:15;;;;;;;;;;;;;;;20.63;28.28;99349.91;5055283;28;895;-74
2022/11/13 10:00:59;;;;;;;;;;;;;;;20.03;28.86;99351.50;5055187;28;1894;-75
2022/11/13 10:03:44;;;;;;;;;;;;;;;20.59;28.27;99354.75;5056023;28;859;-74
2022/11/13 10:06:47;;;;;;;;;;;;;;;20.80;27.58;99340.59;5054912;28;888;-75
2022/11/13 10:09:34;;;;;;;;;;;;;;;20.80;27.46;99349.06;5055053;28;882;-74
2022/11/13 10:12:18;;;;;;;;;;;;;;;20.86;27.55;99340.97;5055892;28;952;-74
2022/11/13 10:15:02;;;;;;;;;;;;;;;20.48;27.92;99342.66;5040874;28;925;-74
2022/11/13 10:17:49;;;;;;;;;;;;;;;20.32;28.32;99342.25;5029832;28;2092;-75
2022/11/13 10:20:38;;;;;;;;;;;;;;;20.68;27.79;99338.19;5033581;28;1914;-75
2022/11/13 10:23:27;;;;;;;;;;;;;;;20.96;27.07;99339.34;5033883;28;988;-73
2022/11/13 10:26:15;;;;;;;;;;;;;;;20.87;27.20;99330.47;5033759;28;948;-73
2022/11/13 10:29:07;;;;;;;;;;;;;;;21.18;26.76;99334.41;5033519;28;917;-73
2022/11/13 10:31:51;;;;;;;;;;;;;;;20.48;27.61;99334.19;5033747;28;995;-73
2022/11/13 10:34:35;;;;;;;;;;;;;;;20.19;28.30;99331.31;5033477;28;1006;-72
2022/11/13 10:37:23;;;;;;;;;;;;;;;20.57;27.88;99322.44;5033577;28;906;-73
2022/11/13 10:40:07;;;;;;;;;;;;;;;20.81;27.33;99322.38;5033578;28;1905;-73
2022/11/13 10:42:51;;;;;;;;;;;;;;;21.19;26.57;99317.03;5033642;28;1037;-73
2022/11/13 10:45:35;;;;;;;;;;;;;;;20.66;27.36;99317.19;5033433;28;1099;-73
2022/11/13 10:48:29;;;;;;;;;;;;;;;20.42;27.66;99311.13;5053891;28;1056;-73
2022/11/13 10:51:26;;;;;;;;;;;;;;;20.49;27.77;99307.50;5088761;28;862;-73
2022/11/13 10:54:21;;;;;;;;;;;;;;;20.66;27.38;99309.50;5074482;28;1060;-74
2022/11/13 10:57:15;;;;;;;;;;;;;;;20.89;27.16;99317.53;5088789;28;936;-74
2022/11/13 10:59:59;;;;;;;;;;;;;;;20.58;27.31;99310.75;5088687;28;1914;-74
2022/11/13 11:02:47;;;;;;;;;;;;;;;20.11;28.51;99312.75;5088779;28;882;-75
2022/11/13 11:05:31;;;;;;;;;;;;;;;20.06;28.50;99304.69;5088767;28;928;-75
2022/11/13 11:08:15;;;;;;;;;;;;;;;20.62;27.48;99302.22;5074506;28;997;-75
2022/11/13 11:14:17;;;;;;;;;;;;;;;20.93;26.91;99303.34;5086317;28;933;-75
2022/11/13 11:17:01;;;;;;;;;;;;;;;20.69;27.41;99303.03;5075624;28;977;-75
2022/11/13 11:19:46;;;;;;;;;;;;;;;20.47;27.57;99295.81;5078908;28;1966;-75
2022/11/13 11:22:32;;;;;;;;;;;;;;;20.28;28.24;99294.97;5092195;28;880;-75
2022/11/13 11:25:21;;;;;;;;;;;;;;;20.78;27.21;99292.09;5092551;28;880;-75
2022/11/13 11:28:29;;;;;;;;;;;;;;;20.83;27.15;99290.88;5078928;28;876;-75
2022/11/13 11:31:27;;;;;;;;;;;;;;;21.02;26.94;99293.22;5076556;28;1024;-75
2022/11/13 11:34:19;;;;;;;;;;;;;;;20.34;27.85;99291.75;5076840;28;940;-75
2022/11/13 11:37:12;;;;;;;;;;;;;;;20.40;27.81;99290.94;5076706;28;950;-75
2022/11/13 11:40:00;;;;;;;;;;;;;;;20.59;27.60;99291.75;5076515;28;1897;-75
2022/11/13 11:42:46;;;;;;;;;;;;;;;20.90;27.12;99301.38;5016614;28;1048;-75
2022/11/13 11:45:36;;;;;;;;;;;;;;;21.18;26.72;99295.59;5016610;28;1009;-75
2022/11/13 11:48:21;;;;;;;;;;;;;;;20.93;26.81;99292.03;5002602;28;962;-75
2022/11/13 11:51:20;;;;;;;;;;;;;;;20.35;28.10;99299.00;5016635;28;952;-75
2022/11/13 11:54:07;;;;;;;;;;;;;;;20.45;27.56;99287.69;5016528;28;1075;-74
2022/11/13 11:56:52;;;;;;;;;;;;;;;20.62;27.57;99290.91;5016520;28;933;-75
2022/11/13 11:59:36;;;;;;;;;;;;;;;20.53;27.61;99277.22;5016378;28;1996;-74
2022/11/13 12:02:39;;;;;;;;;;;;;;;21.04;26.88;99278.69;5016395;28;991;-74
2022/11/13 12:05:24;;;;;;;;;;;;;;;20.67;27.23;99277.16;5016501;28;947;-74
2022/11/13 12:08:14;;;;;;;;;;;;;;;20.17;27.94;99277.22;5027646;28;1006;-75
2022/11/13 12:10:58;;;;;;;;;;;;;;;20.04;27.92;99273.19;5036115;28;942;-75
2022/11/13 12:13:57;;;;;;;;;;;;;;;20.92;26.64;99264.97;5061177;28;965;-74
2022/11/13 12:17:05;;;;;;;;;;;;;;;20.74;27.18;99271.50;5078015;28;923;-74
2022/11/13 12:20:07;;;;;;;;;;;;;;;21.19;26.30;99268.91;5075820;28;1905;-75
2022/11/13 12:22:59;;;;;;;;;;;;;;;20.59;27.25;99263.47;5075902;28;901;-75
2022/11/13 12:25:50;;;;;;;;;;;;;;;20.36;27.42;99264.69;5061762;28;903;-75
2022/11/13 12:28:54;;;;;;;;;;;;;;;20.69;27.16;99269.09;5060286;28;1004;-74
2022/11/13 12:31:41;;;;;;;;;;;;;;;21.09;26.31;99264.09;4996049;28;1102;-74
2022/11/13 12:34:30;;;;;;;;;;;;;;;21.29;26.13;99268.03;4994744;28;1250;-75
2022/11/13 12:37:19;;;;;;;;;;;;;;;20.42;27.40;99265.09;4985752;28;1104;-75
2022/11/13 12:40:06;;;;;;;;;;;;;;;20.22;27.79;99261.88;4993141;28;1906;-75
2022/11/13 12:42:59;;;;;;;;;;;;;;;20.42;27.74;99259.44;4996114;28;982;-75
2022/11/13 12:45:49;;;;;;;;;;;;;;;20.73;26.81;99255.75;4996057;28;1035;-75
2022/11/13 12:48:33;;;;;;;;;;;;;;;20.94;26.64;99262.56;4982232;28;997;-75
2022/11/13 12:51:17;;;;;;;;;;;;;;;20.57;27.09;99260.22;4995838;28;1026;-75
2022/11/13 12:54:01;;;;;;;;;;;;;;;20.18;27.62;99264.72;4995973;28;1029;-75
2022/11/13 12:56:45;;;;;;;;;;;;;;;20.36;27.49;99261.03;4995969;28;1022;-75
2022/11/13 12:59:32;;;;;;;;;;;;;;;20.72;26.74;99262.59;5015379;28;1910;-75
2022/11/13 13:02:28;;;;;;;;;;;;;;;20.69;27.00;99273.94;5001460;28;1025;-75
2022/11/13 13:05:12;;;;;;;;;;;;;;;20.75;26.74;99267.47;5015252;28;994;-73
2022/11/13 13:08:22;;;;;;;;;;;;;;;20.58;26.99;99264.69;5021401;28;945;-74
2022/11/13 13:11:09;;;;;;;;;;;;;;;20.24;27.39;99260.25;4995501;28;908;-73
2022/11/13 13:14:22;;;;;;;;;;;;;;;20.37;27.64;99265.50;4995457;28;925;-75
2022/11/13 13:17:13;;;;;;;;;;;;;;;20.74;26.98;99257.38;4975815;28;980;-75
2022/11/13 13:20:01;;;;;;;;;;;;;;;20.81;26.57;99254.50;4975842;28;1898;-75
2022/11/13 13:22:53;;;;;;;;;;;;;;;20.78;26.73;99258.16;4975875;28;939;-75
2022/11/13 13:25:38;;;;;;;;;;;;;;;20.21;27.69;99244.13;4975905;28;962;-74
2022/11/13 13:28:22;;;;;;;;;;;;;;;20.46;27.12;99243.25;4975844;28;971;-73
2022/11/13 13:31:29;;;;;;;;;;;;;;;20.63;26.88;99253.78;4975449;28;1038;-73
2022/11/13 13:34:20;;;;;;;;;;;;;;;21.19;26.28;99246.28;4975625;28;1069;-74
2022/11/13 13:37:09;;;;;;;;;;;;;;;21.00;26.29;99250.41;4962051;28;871;-74
2022/11/13 13:40:07;;;;;;;;;;;;;;;20.37;27.21;99245.72;4961604;28;1902;-74
2022/11/13 13:43:00;;;;;;;;;;;;;;;20.38;27.27;99250.16;4961958;28;970;-74
2022/11/13 13:45:59;;;;;;;;;;;;;;;20.52;26.94;99250.13;4975491;28;993;-74
2022/11/13 13:48:44;;;;;;;;;;;;;;;20.78;26.86;99244.03;4975349;28;1160;-74
2022/11/13 13:51:29;;;;;;;;;;;;;;;20.97;26.21;99245.53;4961743;28;1051;-75
2022/11/13 13:54:17;;;;;;;;;;;;;;;20.49;27.02;99242.50;4955943;29;939;-74
2022/11/13 13:57:01;;;;;;;;;;;;;;;20.29;27.58;99242.88;4956115;29;980;-74
2022/11/13 13:59:45;;;;;;;;;;;;;;;20.23;27.45;99236.03;4955942;29;1906;-74
2022/11/13 14:02:29;;;;;;;;;;;;;;;20.75;26.90;99239.16;4956128;29;978;-75
2022/11/13 14:05:29;;;;;;;;;;;;;;;21.00;26.34;99243.94;4955887;29;1019;-75
2022/11/13 14:08:20;;;;;;;;;;;;;;;20.87;26.43;99240.72;4955970;29;925;-75
2022/11/13 14:11:20;;;;;;;;;;;;;;;20.53;27.07;99237.63;4998384;28;1016;-74
2022/11/13 14:14:08;;;;;;;;;;;;;;;20.53;26.92;99229.16;5033962;28;986;-75
2022/11/13 14:16:53;;;;;;;;;;;;;;;20.45;27.37;99231.16;5033982;28;1142;-75
2022/11/13 14:19:37;;;;;;;;;;;;;;;20.55;26.90;99232.38;5033531;28;1911;-75
2022/11/13 14:22:21;;;;;;;;;;;;;;;20.76;26.62;99223.81;5033783;28;948;-74
2022/11/13 14:25:08;;;;;;;;;;;;;;;20.73;26.68;99230.31;5034549;28;910;-73
2022/11/13 14:27:52;;;;;;;;;;;;;;;20.27;27.74;99224.75;5048805;28;886;-73
2022/11/13 14:30:36;;;;;;;;;;;;;;;20.23;27.86;99227.56;5048195;28;1029;-73
2022/11/13 14:33:22;;;;;;;;;;;;;;;20.65;27.08;99234.34;5035782;28;870;-73
2022/11/13 14:36:06;;;;;;;;;;;;;;;20.56;27.19;99219.84;5048796;28;956;-74
2022/11/13 14:38:50;;;;;;;;;;;;;;;20.87;26.48;99229.41;5035676;28;948;-74
2022/11/13 14:41:35;;;;;;;;;;;;;;;20.87;26.52;99217.31;5035562;28;1915;-74
2022/11/13 14:44:45;;;;;;;;;;;;;;;20.57;27.01;99221.44;5048907;28;1036;-74